Time;durP1;ratioP1;P1;durP2;ratioP2;P2;SDS_P1;SDS_P2;PMS_P1;PMS_P2;Temp;Humidity;BMP_temperature;BMP_pressure;BME280_temperature;BME280_humidity;BME280_pressure;Samples;Min_cycle;Max_cycle;Signal;HPM_P1;HPM_P2
2021/05/25 00:01:29;;;;;;;1.17;0.90;;;;;;;;;;5076623;28;20468;-61
2021/05/25 00:03:56;;;;;;;4.03;0.95;;;;;;;;;;5088544;28;20119;-60
2021/05/25 00:06:24;;;;;;;1.38;1.00;;;;;;;;;;5071186;28;20147;-60
2021/05/25 00:08:52;;;;;;;1.25;0.88;;;;;;;;;;5071343;28;20044;-60
2021/05/25 00:11:21;;;;;;;1.95;0.90;;;;;;;;;;5069710;28;20099;-60
2021/05/25 00:13:48;;;;;;;2.80;0.90;;;;;;;;;;5053758;28;20128;-60
2021/05/25 00:16:16;;;;;;;1.50;0.90;;;;;;;;;;5072076;28;20271;-60
2021/05/25 00:18:44;;;;;;;1.20;1.02;;;;;;;;;;5079997;28;20586;-60
2021/05/25 00:21:12;;;;;;;2.08;0.95;;;;;;;;;;5075434;28;20042;-60
2021/05/25 00:23:40;;;;;;;4.32;0.95;;;;;;;;;;5088987;28;20075;-60
2021/05/25 00:26:08;;;;;;;1.88;1.00;;;;;;;;;;5070931;28;20557;-61
2021/05/25 00:28:37;;;;;;;1.20;0.77;;;;;;;;;;5068548;28;20045;-59
2021/05/25 00:31:05;;;;;;;1.33;0.88;;;;;;;;;;5091627;28;20051;-59
2021/05/25 00:33:32;;;;;;;0.73;0.60;;;;;;;;;;5085307;28;20469;-58
2021/05/25 00:36:00;;;;;;;4.80;1.20;;;;;;;;;;5070872;28;20090;-59
2021/05/25 00:38:28;;;;;;;2.47;1.00;;;;;;;;;;5073291;28;20106;-59
2021/05/25 00:40:56;;;;;;;3.65;1.38;;;;;;;;;;5091220;28;20151;-59
2021/05/25 00:43:24;;;;;;;2.10;0.70;;;;;;;;;;5087453;28;20114;-58
2021/05/25 00:45:53;;;;;;;2.88;1.38;;;;;;;;;;5070261;28;20072;-59
2021/05/25 00:48:21;;;;;;;2.53;1.25;;;;;;;;;;5066710;28;20538;-59
2021/05/25 00:50:49;;;;;;;1.23;0.82;;;;;;;;;;5050913;28;20095;-59
2021/05/25 00:53:17;;;;;;;3.72;1.05;;;;;;;;;;5066538;28;20150;-58
2021/05/25 00:55:44;;;;;;;1.88;1.52;;;;;;;;;;5091096;28;20091;-59
2021/05/25 00:58:12;;;;;;;2.08;0.80;;;;;;;;;;5087423;28;20079;-59
2021/05/25 01:00:41;;;;;;;4.22;1.20;;;;;;;;;;5070646;28;20083;-59
2021/05/25 01:03:11;;;;;;;1.15;0.90;;;;;;;;;;5087345;22;20036;-67
2021/05/25 01:05:39;;;;;;;1.42;1.00;;;;;;;;;;5093449;28;20091;-68
2021/05/25 01:08:08;;;;;;;1.33;0.80;;;;;;;;;;5093742;28;20040;-67
2021/05/25 01:10:38;;;;;;;4.38;0.80;;;;;;;;;;5093758;28;20391;-67
2021/05/25 01:13:09;;;;;;;3.70;0.90;;;;;;;;;;5093657;28;20052;-67
2021/05/25 01:15:38;;;;;;;4.60;0.73;;;;;;;;;;5093559;28;20040;-67
2021/05/25 01:18:07;;;;;;;2.17;0.80;;;;;;;;;;5094164;28;20142;-67
2021/05/25 01:20:36;;;;;;;2.83;0.77;;;;;;;;;;5094159;28;20059;-68
2021/05/25 01:23:05;;;;;;;1.27;0.60;;;;;;;;;;5093040;28;20044;-67
2021/05/25 01:25:33;;;;;;;1.35;0.80;;;;;;;;;;5092975;28;20056;-67
2021/05/25 01:28:01;;;;;;;2.35;0.90;;;;;;;;;;5093190;28;20127;-67
2021/05/25 01:30:30;;;;;;;3.30;0.70;;;;;;;;;;5093296;28;20474;-67
2021/05/25 01:32:58;;;;;;;5.20;0.85;;;;;;;;;;5092528;28;20475;-67
2021/05/25 01:35:27;;;;;;;3.17;0.70;;;;;;;;;;5093693;28;20143;-67
2021/05/25 01:37:56;;;;;;;2.15;0.73;;;;;;;;;;5092722;28;20079;-67
2021/05/25 01:40:25;;;;;;;4.20;0.80;;;;;;;;;;5093612;28;20128;-67
2021/05/25 01:42:53;;;;;;;2.45;0.80;;;;;;;;;;5093385;28;20099;-67
2021/05/25 01:45:22;;;;;;;3.17;0.85;;;;;;;;;;5093560;28;20075;-67
2021/05/25 01:47:51;;;;;;;2.17;0.70;;;;;;;;;;5094161;28;20086;-67
2021/05/25 01:50:19;;;;;;;1.80;0.75;;;;;;;;;;5094006;28;20144;-68
2021/05/25 01:52:55;;;;;;;1.95;0.60;;;;;;;;;;5093124;28;20048;-67
2021/05/25 01:55:26;;;;;;;5.20;0.80;;;;;;;;;;5093758;28;20500;-68
2021/05/25 01:57:54;;;;;;;2.15;1.83;;;;;;;;;;5093011;28;20048;-67
2021/05/25 02:00:22;;;;;;;4.22;0.82;;;;;;;;;;5092731;28;20091;-67
2021/05/25 02:02:50;;;;;;;3.75;0.70;;;;;;;;;;5091570;28;20139;-68
2021/05/25 02:05:18;;;;;;;1.40;0.73;;;;;;;;;;5090168;28;20163;-67
2021/05/25 02:07:46;;;;;;;4.97;0.70;;;;;;;;;;5088861;28;20642;-67
2021/05/25 02:10:28;;;;;;;3.20;0.80;;;;;;;;;;5089126;28;20087;-67
2021/05/25 02:12:57;;;;;;;5.18;0.77;;;;;;;;;;5088803;28;20105;-68
2021/05/25 02:15:25;;;;;;;3.70;0.80;;;;;;;;;;5089929;28;20091;-67
2021/05/25 02:17:53;;;;;;;3.40;0.85;;;;;;;;;;5090013;28;20134;-68
2021/05/25 02:20:21;;;;;;;1.75;0.60;;;;;;;;;;5090438;28;20087;-68
2021/05/25 02:22:48;;;;;;;7.72;1.85;;;;;;;;;;5089836;28;20082;-67
2021/05/25 02:25:16;;;;;;;2.35;0.65;;;;;;;;;;5088860;28;20507;-67
2021/05/25 02:27:45;;;;;;;3.17;0.70;;;;;;;;;;5080899;28;20049;-68
2021/05/25 02:30:13;;;;;;;4.63;1.00;;;;;;;;;;5079971;28;20101;-67
2021/05/25 02:32:41;;;;;;;1.50;0.82;;;;;;;;;;5089337;28;20498;-68
2021/05/25 02:35:10;;;;;;;3.70;0.90;;;;;;;;;;5098596;28;20091;-68
2021/05/25 02:37:38;;;;;;;2.35;0.68;;;;;;;;;;5095125;28;20102;-68
2021/05/25 02:40:06;;;;;;;2.45;0.88;;;;;;;;;;5089344;28;20530;-68
2021/05/25 02:42:34;;;;;;;3.55;0.90;;;;;;;;;;5095124;28;20118;-68
2021/05/25 02:45:04;;;;;;;2.78;0.90;;;;;;;;;;5083295;28;20128;-68
2021/05/25 02:47:32;;;;;;;2.35;0.80;;;;;;;;;;5072290;28;20151;-68
2021/05/25 02:50:06;;;;;;;1.98;1.00;;;;;;;;;;5073365;28;20155;-68
2021/05/25 02:52:34;;;;;;;2.77;1.13;;;;;;;;;;5073180;28;20083;-68
2021/05/25 02:55:02;;;;;;;4.38;1.30;;;;;;;;;;5072972;28;20080;-68
2021/05/25 02:57:30;;;;;;;4.03;1.10;;;;;;;;;;5085188;28;20738;-68
2021/05/25 02:59:58;;;;;;;3.88;0.90;;;;;;;;;;5106369;28;20090;-68
2021/05/25 03:02:27;;;;;;;2.58;0.85;;;;;;;;;;5096056;28;20098;-68
2021/05/25 03:04:55;;;;;;;3.13;0.88;;;;;;;;;;5077141;28;20163;-67
2021/05/25 03:07:23;;;;;;;7.55;1.23;;;;;;;;;;5092840;28;20071;-68
2021/05/25 03:09:50;;;;;;;1.33;0.93;;;;;;;;;;5078799;28;20135;-67
2021/05/25 03:12:18;;;;;;;8.70;1.00;;;;;;;;;;5084122;28;20076;-68
2021/05/25 03:14:46;;;;;;;2.58;0.70;;;;;;;;;;5078328;28;20110;-67
2021/05/25 03:17:15;;;;;;;4.40;0.98;;;;;;;;;;5072068;28;20239;-68
2021/05/25 03:19:43;;;;;;;4.90;0.80;;;;;;;;;;5085325;28;20132;-67
2021/05/25 03:22:11;;;;;;;2.60;0.90;;;;;;;;;;5082094;28;20041;-68
2021/05/25 03:24:39;;;;;;;5.60;1.17;;;;;;;;;;5085600;28;20491;-68
2021/05/25 03:27:07;;;;;;;2.15;0.90;;;;;;;;;;5091124;28;20132;-68
2021/05/25 03:29:34;;;;;;;7.47;1.10;;;;;;;;;;5072953;28;20048;-68
2021/05/25 03:32:02;;;;;;;4.28;0.98;;;;;;;;;;5072907;28;20087;-68
2021/05/25 03:34:31;;;;;;;6.45;1.00;;;;;;;;;;5072686;28;20060;-68
2021/05/25 03:37:00;;;;;;;5.22;1.17;;;;;;;;;;5075048;28;20094;-68
2021/05/25 03:39:28;;;;;;;4.43;1.42;;;;;;;;;;5077016;28;20058;-67
2021/05/25 03:41:58;;;;;;;6.80;1.10;;;;;;;;;;5073392;28;20044;-68
2021/05/25 03:44:27;;;;;;;3.83;0.82;;;;;;;;;;5091522;28;20054;-67
2021/05/25 03:46:55;;;;;;;5.50;1.23;;;;;;;;;;5077824;28;20084;-68
2021/05/25 03:49:23;;;;;;;3.25;1.10;;;;;;;;;;5071928;28;20086;-67
2021/05/25 03:51:51;;;;;;;6.30;1.15;;;;;;;;;;5084210;28;20131;-67
2021/05/25 03:54:22;;;;;;;10.10;1.60;;;;;;;;;;5073104;28;20055;-68
2021/05/25 03:56:53;;;;;;;3.20;1.05;;;;;;;;;;5071601;28;20157;-68
2021/05/25 03:59:20;;;;;;;2.40;1.30;;;;;;;;;;5071737;28;20487;-68
2021/05/25 04:01:50;;;;;;;3.33;0.90;;;;;;;;;;5071758;28;20047;-68
2021/05/25 04:04:18;;;;;;;5.70;1.17;;;;;;;;;;5089148;28;20080;-68
2021/05/25 04:06:46;;;;;;;3.60;1.00;;;;;;;;;;5070225;28;20056;-68
2021/05/25 04:09:13;;;;;;;6.50;2.08;;;;;;;;;;5054885;28;20052;-68
2021/05/25 04:11:42;;;;;;;9.60;1.35;;;;;;;;;;5071244;28;20048;-68
2021/05/25 04:14:10;;;;;;;4.88;1.10;;;;;;;;;;5064218;28;20052;-68
2021/05/25 04:16:37;;;;;;;2.97;1.17;;;;;;;;;;5069971;28;20444;-68
2021/05/25 04:19:05;;;;;;;5.65;1.30;;;;;;;;;;5051630;28;20113;-68
2021/05/25 04:21:34;;;;;;;3.30;1.15;;;;;;;;;;5051104;28;20084;-68
2021/05/25 04:24:02;;;;;;;2.88;1.20;;;;;;;;;;5070891;28;20527;-67
2021/05/25 04:26:30;;;;;;;3.95;0.98;;;;;;;;;;5047603;28;20049;-68
2021/05/25 04:28:59;;;;;;;6.22;1.15;;;;;;;;;;5051726;28;20049;-68
2021/05/25 04:31:26;;;;;;;8.93;1.10;;;;;;;;;;5050713;28;20140;-68
2021/05/25 04:33:54;;;;;;;6.25;1.23;;;;;;;;;;5051302;28;20151;-68
2021/05/25 04:36:22;;;;;;;6.30;1.00;;;;;;;;;;5049993;28;20124;-68
2021/05/25 04:38:50;;;;;;;2.75;1.10;;;;;;;;;;5051175;28;20076;-68
2021/05/25 04:41:18;;;;;;;8.48;1.20;;;;;;;;;;5049827;28;20083;-68
2021/05/25 04:43:46;;;;;;;3.88;0.98;;;;;;;;;;5050328;28;20053;-68
2021/05/25 04:46:15;;;;;;;2.63;0.88;;;;;;;;;;5050088;28;20045;-68
2021/05/25 04:48:42;;;;;;;2.75;0.88;;;;;;;;;;5051824;28;20053;-68
2021/05/25 04:51:10;;;;;;;3.15;0.93;;;;;;;;;;5067322;28;20040;-67
2021/05/25 04:53:38;;;;;;;5.28;0.90;;;;;;;;;;5050708;28;20072;-68
2021/05/25 04:56:06;;;;;;;2.60;0.90;;;;;;;;;;5050010;28;20118;-67
2021/05/25 04:58:34;;;;;;;4.50;0.90;;;;;;;;;;5050240;28;20164;-68
2021/05/25 05:01:01;;;;;;;4.85;0.90;;;;;;;;;;5050615;28;20057;-68
2021/05/25 05:03:30;;;;;;;4.28;1.15;;;;;;;;;;5049586;28;20546;-68
2021/05/25 05:05:58;;;;;;;3.13;0.90;;;;;;;;;;5044597;28;20041;-67
2021/05/25 05:08:26;;;;;;;4.72;0.90;;;;;;;;;;5070939;28;20119;-68
2021/05/25 05:10:54;;;;;;;2.85;0.90;;;;;;;;;;5080368;28;20080;-67
2021/05/25 05:13:22;;;;;;;2.80;0.88;;;;;;;;;;5085263;28;20465;-68
2021/05/25 05:15:50;;;;;;;4.88;1.20;;;;;;;;;;5085692;28;20100;-67
2021/05/25 05:18:18;;;;;;;6.20;1.45;;;;;;;;;;5074068;28;20072;-67
2021/05/25 05:20:47;;;;;;;5.95;1.25;;;;;;;;;;5074428;28;20093;-68
2021/05/25 05:23:17;;;;;;;6.05;1.38;;;;;;;;;;5084795;28;20048;-68
2021/05/25 05:25:44;;;;;;;7.60;1.33;;;;;;;;;;5087156;28;20123;-68
2021/05/25 05:28:13;;;;;;;3.30;1.30;;;;;;;;;;5074094;28;20447;-67
2021/05/25 05:30:40;;;;;;;5.43;1.30;;;;;;;;;;5083936;28;20476;-67
2021/05/25 05:33:09;;;;;;;8.63;1.70;;;;;;;;;;5070386;28;20048;-67
2021/05/25 05:35:37;;;;;;;5.22;1.30;;;;;;;;;;5078990;28;20068;-67
2021/05/25 05:38:06;;;;;;;5.05;1.48;;;;;;;;;;5088483;28;20056;-67
2021/05/25 05:40:35;;;;;;;9.23;1.65;;;;;;;;;;5089519;28;20620;-67
2021/05/25 05:43:06;;;;;;;6.03;1.33;;;;;;;;;;5108114;28;20134;-66
2021/05/25 05:45:34;;;;;;;3.65;0.90;;;;;;;;;;5092803;28;20067;-67
2021/05/25 05:48:02;;;;;;;4.45;1.15;;;;;;;;;;5073013;28;20044;-66
2021/05/25 05:50:30;;;;;;;5.53;1.10;;;;;;;;;;5092047;28;20097;-66
2021/05/25 05:52:58;;;;;;;3.55;1.10;;;;;;;;;;5081982;28;20122;-67
2021/05/25 05:55:26;;;;;;;2.92;1.10;;;;;;;;;;5091936;28;20124;-68
2021/05/25 05:57:54;;;;;;;8.05;2.40;;;;;;;;;;5087364;28;20083;-67
2021/05/25 06:00:23;;;;;;;7.57;1.02;;;;;;;;;;5077922;28;20070;-67
2021/05/25 06:02:51;;;;;;;5.68;1.10;;;;;;;;;;5072302;28;20177;-67
2021/05/25 06:05:18;;;;;;;6.50;1.20;;;;;;;;;;5062514;28;1092311;-67
2021/05/25 06:07:47;;;;;;;6.15;1.33;;;;;;;;;;5084753;28;20044;-68
2021/05/25 06:10:15;;;;;;;4.70;0.70;;;;;;;;;;5084985;28;20102;-67
2021/05/25 06:12:44;;;;;;;9.68;1.10;;;;;;;;;;5086461;28;20047;-67
2021/05/25 06:15:13;;;;;;;4.38;1.02;;;;;;;;;;5085149;28;20043;-67
2021/05/25 06:17:41;;;;;;;5.35;1.20;;;;;;;;;;5084837;28;20101;-67
2021/05/25 06:20:10;;;;;;;6.68;1.27;;;;;;;;;;5090297;28;20051;-67
2021/05/25 06:22:38;;;;;;;4.22;1.05;;;;;;;;;;5101666;28;20141;-67
2021/05/25 06:25:07;;;;;;;6.90;1.10;;;;;;;;;;5113190;28;20047;-67
2021/05/25 06:27:36;;;;;;;4.97;1.00;;;;;;;;;;5092949;28;20189;-67
2021/05/25 06:30:06;;;;;;;5.63;1.00;;;;;;;;;;5092063;28;20044;-67
2021/05/25 06:32:34;;;;;;;4.15;0.95;;;;;;;;;;5093750;28;20330;-67
2021/05/25 06:35:03;;;;;;;7.60;1.40;;;;;;;;;;5092753;28;20048;-67
2021/05/25 06:37:31;;;;;;;6.93;0.98;;;;;;;;;;5091522;28;20357;-67
2021/05/25 06:39:59;;;;;;;3.85;0.73;;;;;;;;;;5092533;28;20051;-67
2021/05/25 06:42:27;;;;;;;9.35;1.02;;;;;;;;;;5094855;28;20040;-67
2021/05/25 06:44:55;;;;;;;3.72;1.02;;;;;;;;;;5092451;28;20044;-67
2021/05/25 06:47:24;;;;;;;5.38;1.33;;;;;;;;;;5071756;28;20049;-68
2021/05/25 06:49:53;;;;;;;7.93;1.48;;;;;;;;;;5091161;28;20102;-67
2021/05/25 06:52:21;;;;;;;9.30;1.20;;;;;;;;;;5093567;28;20081;-68
2021/05/25 06:54:50;;;;;;;6.85;2.08;;;;;;;;;;5092391;28;20083;-67
2021/05/25 06:57:18;;;;;;;4.65;1.00;;;;;;;;;;5092691;28;20554;-67
2021/05/25 06:59:47;;;;;;;7.65;1.20;;;;;;;;;;5093497;28;20515;-67
2021/05/25 07:02:16;;;;;;;7.88;0.93;;;;;;;;;;5091203;28;20044;-67
2021/05/25 07:04:46;;;;;;;8.40;1.23;;;;;;;;;;5092269;28;20055;-67
2021/05/25 07:07:15;;;;;;;10.40;1.33;;;;;;;;;;5120519;27;20064;-67
2021/05/25 07:09:43;;;;;;;5.03;1.10;;;;;;;;;;5122337;27;20142;-67
2021/05/25 07:12:12;;;;;;;4.40;0.73;;;;;;;;;;5112465;28;20055;-68
2021/05/25 07:14:41;;;;;;;3.35;0.73;;;;;;;;;;5096688;28;20054;-68
2021/05/25 07:17:09;;;;;;;4.95;1.00;;;;;;;;;;5111243;28;20448;-67
2021/05/25 07:19:37;;;;;;;6.20;1.20;;;;;;;;;;5112191;27;20044;-68
2021/05/25 07:22:06;;;;;;;3.67;1.42;;;;;;;;;;5118299;27;20039;-67
2021/05/25 07:24:34;;;;;;;2.30;0.68;;;;;;;;;;5111826;28;20110;-68
2021/05/25 07:27:02;;;;;;;5.93;1.02;;;;;;;;;;5112587;28;20082;-67
2021/05/25 07:29:30;;;;;;;4.40;1.30;;;;;;;;;;5112583;28;20078;-67
2021/05/25 07:31:58;;;;;;;2.10;0.50;;;;;;;;;;5111753;28;20069;-68
2021/05/25 07:34:27;;;;;;;2.38;0.80;;;;;;;;;;5112036;28;20058;-67
2021/05/25 07:36:55;;;;;;;3.20;0.82;;;;;;;;;;5107720;28;20513;-68
2021/05/25 07:39:24;;;;;;;8.32;1.02;;;;;;;;;;5112317;28;20070;-67
2021/05/25 07:41:52;;;;;;;3.88;0.77;;;;;;;;;;5124056;27;20055;-67
2021/05/25 07:44:20;;;;;;;4.25;0.70;;;;;;;;;;5126423;27;20044;-68
2021/05/25 07:46:49;;;;;;;4.22;0.75;;;;;;;;;;5110901;28;20127;-67
2021/05/25 07:49:17;;;;;;;2.05;0.60;;;;;;;;;;5114357;27;20047;-67
2021/05/25 07:51:50;;;;;;;2.25;0.70;;;;;;;;;;5111841;28;20089;-67
2021/05/25 07:54:19;;;;;;;5.32;0.95;;;;;;;;;;5112013;28;20043;-67
2021/05/25 07:56:48;;;;;;;3.40;0.80;;;;;;;;;;5111117;28;20071;-67
2021/05/25 07:59:16;;;;;;;3.38;0.90;;;;;;;;;;5112013;28;20095;-68
2021/05/25 08:01:45;;;;;;;9.73;1.20;;;;;;;;;;5112175;28;20055;-68
2021/05/25 08:04:13;;;;;;;4.75;0.82;;;;;;;;;;5111962;28;20075;-67
2021/05/25 08:06:41;;;;;;;6.35;0.98;;;;;;;;;;5099822;28;20040;-67
2021/05/25 08:09:10;;;;;;;4.18;0.85;;;;;;;;;;5090523;28;20060;-68
2021/05/25 08:11:38;;;;;;;14.70;1.02;;;;;;;;;;5085985;28;20395;-68
2021/05/25 08:14:10;;;;;;;4.15;0.80;;;;;;;;;;5091349;28;20077;-68
2021/05/25 08:16:42;;;;;;;4.32;0.77;;;;;;;;;;5091794;28;20044;-68
2021/05/25 08:19:16;;;;;;;6.25;1.00;;;;;;;;;;5091286;28;20083;-68
2021/05/25 08:21:44;;;;;;;6.72;0.80;;;;;;;;;;5090138;28;20083;-68
2021/05/25 08:24:13;;;;;;;4.00;0.70;;;;;;;;;;5090480;28;20074;-67
2021/05/25 08:26:42;;;;;;;3.55;1.10;;;;;;;;;;5090806;28;20040;-67
2021/05/25 08:29:16;;;;;;;6.72;0.77;;;;;;;;;;5089522;28;20048;-67
2021/05/25 08:31:45;;;;;;;5.50;0.75;;;;;;;;;;5091794;28;20589;-66
2021/05/25 08:34:14;;;;;;;7.18;1.17;;;;;;;;;;5091026;28;20058;-66
2021/05/25 08:36:43;;;;;;;2.88;0.70;;;;;;;;;;5089577;28;20525;-66
2021/05/25 08:39:11;;;;;;;4.00;0.55;;;;;;;;;;5091886;28;20078;-66
2021/05/25 08:41:40;;;;;;;6.05;1.10;;;;;;;;;;5098795;28;20047;-66
2021/05/25 08:44:08;;;;;;;6.35;0.93;;;;;;;;;;5101251;28;20104;-66
2021/05/25 08:46:38;;;;;;;4.38;0.65;;;;;;;;;;5088057;28;20052;-66
2021/05/25 08:49:11;;;;;;;3.80;0.88;;;;;;;;;;5090026;28;20060;-67
2021/05/25 08:51:39;;;;;;;5.57;1.05;;;;;;;;;;5090462;28;20150;-66
2021/05/25 08:54:09;;;;;;;2.15;0.60;;;;;;;;;;5090381;28;20105;-67
2021/05/25 08:56:37;;;;;;;5.68;1.02;;;;;;;;;;5088760;28;20044;-66
2021/05/25 08:59:05;;;;;;;3.20;0.95;;;;;;;;;;5100697;28;20052;-67
2021/05/25 09:01:33;;;;;;;4.85;0.80;;;;;;;;;;5095173;28;20118;-67
2021/05/25 09:04:04;;;;;;;4.25;1.10;;;;;;;;;;5076917;28;20499;-67
2021/05/25 09:06:40;;;;;;;6.00;1.23;;;;;;;;;;5097723;28;20101;-66
2021/05/25 09:09:10;;;;;;;2.50;0.80;;;;;;;;;;5110128;28;20112;-66
2021/05/25 09:12:00;;;;;;;4.30;0.80;;;;;;;;;;5108929;28;20398;-67
2021/05/25 09:14:29;;;;;;;4.93;0.60;;;;;;;;;;5110233;28;20039;-67
2021/05/25 09:17:17;;;;;;;2.00;0.55;;;;;;;;;;5111796;27;20123;-66
2021/05/25 09:19:46;;;;;;;3.08;0.50;;;;;;;;;;5107081;28;20047;-66
2021/05/25 09:22:28;;;;;;;10.25;1.15;;;;;;;;;;5110163;28;20082;-66
2021/05/25 09:24:57;;;;;;;14.43;2.33;;;;;;;;;;5107848;28;20564;-68
2021/05/25 09:27:29;;;;;;;6.78;1.23;;;;;;;;;;5110518;28;20047;-66
2021/05/25 09:30:19;;;;;;;6.93;0.90;;;;;;;;;;5109589;28;20061;-66
2021/05/25 09:32:49;;;;;;;7.22;0.80;;;;;;;;;;5110654;28;20503;-66
2021/05/25 09:35:22;;;;;;;3.55;0.65;;;;;;;;;;5107995;28;20483;-66
2021/05/25 09:37:52;;;;;;;4.20;0.80;;;;;;;;;;5108013;28;20085;-66
2021/05/25 09:40:21;;;;;;;4.05;0.82;;;;;;;;;;5109474;28;20082;-66
2021/05/25 09:42:52;;;;;;;6.97;1.35;;;;;;;;;;5108684;28;20493;-67
2021/05/25 09:45:21;;;;;;;8.20;1.13;;;;;;;;;;5108030;28;20120;-66
2021/05/25 09:47:53;;;;;;;3.35;0.90;;;;;;;;;;5109053;28;20697;-67
2021/05/25 09:50:24;;;;;;;3.88;0.70;;;;;;;;;;5109470;28;20052;-66
2021/05/25 09:53:10;;;;;;;2.55;0.63;;;;;;;;;;5110676;28;20419;-66
2021/05/25 09:55:48;;;;;;;3.75;0.60;;;;;;;;;;5121634;27;20039;-66
2021/05/25 09:58:16;;;;;;;2.95;0.70;;;;;;;;;;5125695;27;20575;-67
2021/05/25 10:00:46;;;;;;;4.05;0.60;;;;;;;;;;5115830;28;20483;-66
2021/05/25 10:03:20;;;;;;;4.90;0.90;;;;;;;;;;5117772;27;20047;-67
2021/05/25 10:05:50;;;;;;;3.22;0.70;;;;;;;;;;5119387;27;20112;-67
2021/05/25 10:08:22;;;;;;;4.38;0.98;;;;;;;;;;5100775;28;20074;-67
2021/05/25 10:10:51;;;;;;;2.25;0.70;;;;;;;;;;5094275;28;20454;-67
2021/05/25 10:13:19;;;;;;;4.43;0.75;;;;;;;;;;5089342;28;20075;-67
2021/05/25 10:15:49;;;;;;;2.58;0.68;;;;;;;;;;5096725;28;20123;-68
2021/05/25 10:18:35;;;;;;;3.10;0.70;;;;;;;;;;5089586;28;20503;-68
2021/05/25 10:21:05;;;;;;;3.88;0.60;;;;;;;;;;5071401;28;20067;-68
2021/05/25 10:23:34;;;;;;;10.45;0.90;;;;;;;;;;5092706;28;20100;-68
2021/05/25 10:26:04;;;;;;;2.22;0.60;;;;;;;;;;5088491;28;20049;-68
2021/05/25 10:28:33;;;;;;;1.63;0.68;;;;;;;;;;5088288;28;20518;-68
2021/05/25 10:31:02;;;;;;;2.97;0.75;;;;;;;;;;5089029;28;20391;-68
2021/05/25 10:33:34;;;;;;;3.95;0.70;;;;;;;;;;5091341;28;20066;-68
2021/05/25 10:36:04;;;;;;;3.38;0.68;;;;;;;;;;5088608;28;20056;-69
2021/05/25 10:38:33;;;;;;;8.35;1.08;;;;;;;;;;5088918;28;20050;-68
2021/05/25 10:41:03;;;;;;;4.22;0.57;;;;;;;;;;5089799;28;20073;-67
2021/05/25 10:43:47;;;;;;;3.25;0.82;;;;;;;;;;5090468;28;20494;-68
2021/05/25 10:46:21;;;;;;;4.20;0.82;;;;;;;;;;5088591;28;20125;-68
2021/05/25 10:48:57;;;;;;;2.63;0.50;;;;;;;;;;5089965;28;20040;-68
2021/05/25 10:51:40;;;;;;;5.18;1.17;;;;;;;;;;5089630;28;20657;-68
2021/05/25 10:54:25;;;;;;;4.90;0.98;;;;;;;;;;5089614;28;20569;-68
2021/05/25 10:56:55;;;;;;;4.35;0.80;;;;;;;;;;5087480;28;20094;-69
2021/05/25 10:59:23;;;;;;;5.43;0.85;;;;;;;;;;5089559;28;20342;-68
2021/05/25 11:01:54;;;;;;;3.90;1.10;;;;;;;;;;5094271;28;20209;-68
2021/05/25 11:04:23;;;;;;;6.35;1.15;;;;;;;;;;5088736;28;20052;-68
2021/05/25 11:06:52;;;;;;;8.52;0.98;;;;;;;;;;5088189;28;20051;-68
2021/05/25 11:09:23;;;;;;;8.75;1.00;;;;;;;;;;5088925;28;20128;-68
2021/05/25 11:12:12;;;;;;;4.40;0.80;;;;;;;;;;5089712;28;20036;-68
2021/05/25 11:14:56;;;;;;;4.55;0.93;;;;;;;;;;5089568;28;20055;-68
2021/05/25 11:17:30;;;;;;;9.40;1.30;;;;;;;;;;5087164;28;20139;-68
2021/05/25 11:20:10;;;;;;;2.47;0.52;;;;;;;;;;5088863;28;20127;-68
2021/05/25 11:22:39;;;;;;;5.60;0.93;;;;;;;;;;5088914;28;20051;-68
2021/05/25 11:25:07;;;;;;;4.70;1.02;;;;;;;;;;5088463;28;20052;-68
2021/05/25 11:27:43;;;;;;;2.42;0.70;;;;;;;;;;5088949;28;20075;-68
2021/05/25 11:30:24;;;;;;;4.75;0.82;;;;;;;;;;5075594;28;20040;-68
2021/05/25 11:32:54;;;;;;;4.03;0.90;;;;;;;;;;5087763;28;20559;-69
2021/05/25 11:35:23;;;;;;;2.28;0.60;;;;;;;;;;5088239;28;20055;-68
2021/05/25 11:37:53;;;;;;;5.38;0.80;;;;;;;;;;5087624;28;20055;-68
2021/05/25 11:40:23;;;;;;;3.33;0.80;;;;;;;;;;5088726;28;20075;-68
2021/05/25 11:42:53;;;;;;;5.63;0.60;;;;;;;;;;5087021;28;20043;-69
2021/05/25 11:45:23;;;;;;;8.80;0.90;;;;;;;;;;5088027;28;20098;-68
2021/05/25 11:47:53;;;;;;;3.13;0.60;;;;;;;;;;5087882;28;20082;-69
2021/05/25 11:50:21;;;;;;;2.83;0.63;;;;;;;;;;5079469;28;20083;-68
2021/05/25 11:53:05;;;;;;;1.75;0.50;;;;;;;;;;5090375;28;20055;-68
2021/05/25 11:55:34;;;;;;;3.75;0.60;;;;;;;;;;5085556;28;20040;-68
2021/05/25 11:58:05;;;;;;;3.17;0.70;;;;;;;;;;5088363;28;20067;-68
2021/05/25 12:00:36;;;;;;;9.10;0.80;;;;;;;;;;5088504;28;20048;-68
2021/05/25 12:03:08;;;;;;;3.13;0.70;;;;;;;;;;5088334;28;20173;-68
2021/05/25 12:05:36;;;;;;;3.40;0.63;;;;;;;;;;5087951;28;20052;-68
2021/05/25 12:08:06;;;;;;;5.45;1.00;;;;;;;;;;5087949;28;20052;-67
2021/05/25 12:10:35;;;;;;;4.22;0.90;;;;;;;;;;5087660;28;20089;-68
2021/05/25 12:13:05;;;;;;;6.85;0.80;;;;;;;;;;5088776;28;20044;-68
2021/05/25 12:15:39;;;;;;;2.75;0.80;;;;;;;;;;5088022;28;20048;-69
2021/05/25 12:18:09;;;;;;;6.70;0.98;;;;;;;;;;5088206;28;20052;-68
2021/05/25 12:20:42;;;;;;;18.63;1.02;;;;;;;;;;5088973;28;20048;-68
2021/05/25 12:23:11;;;;;;;4.05;0.80;;;;;;;;;;5099030;28;20093;-68
2021/05/25 12:25:41;;;;;;;5.88;0.80;;;;;;;;;;5101916;28;20561;-68
2021/05/25 12:28:12;;;;;;;3.67;1.10;;;;;;;;;;5088388;28;20052;-67
2021/05/25 12:30:43;;;;;;;8.60;1.75;;;;;;;;;;5088687;28;20494;-68
2021/05/25 12:33:16;;;;;;;4.38;1.00;;;;;;;;;;5088649;28;20052;-68
2021/05/25 12:35:45;;;;;;;6.25;0.80;;;;;;;;;;5088110;28;20052;-68
2021/05/25 12:38:15;;;;;;;3.13;0.80;;;;;;;;;;5086540;28;20048;-68
2021/05/25 12:40:44;;;;;;;5.85;0.65;;;;;;;;;;5093160;28;20048;-67
2021/05/25 12:43:17;;;;;;;8.90;1.13;;;;;;;;;;5088770;28;20562;-68
2021/05/25 12:46:08;;;;;;;4.63;0.67;;;;;;;;;;2687392;28;10004000;-68
2021/05/25 12:48:37;;;;;;;4.43;0.73;;;;;;;;;;3680851;28;10001595;-67
2021/05/25 12:51:06;;;;;;;11.10;1.00;;;;;;;;;;5087182;28;20077;-67
2021/05/25 12:53:48;;;;;;;5.03;0.80;;;;;;;;;;5088247;28;20196;-68
2021/05/25 12:56:18;;;;;;;3.25;1.02;;;;;;;;;;5087527;28;20066;-68
2021/05/25 12:58:48;;;;;;;3.58;0.60;;;;;;;;;;5089272;28;20044;-69
2021/05/25 13:01:19;;;;;;;3.92;0.70;;;;;;;;;;5088179;28;20075;-68
2021/05/25 13:03:48;;;;;;;9.70;1.20;;;;;;;;;;5085623;28;20055;-69
2021/05/25 13:06:20;;;;;;;2.97;0.73;;;;;;;;;;5083451;28;20060;-68
2021/05/25 13:08:50;;;;;;;5.35;0.60;;;;;;;;;;5087485;28;20066;-69
2021/05/25 13:11:19;;;;;;;2.00;0.80;;;;;;;;;;5088275;28;20136;-69
2021/05/25 13:13:49;;;;;;;4.28;0.88;;;;;;;;;;5086613;28;20106;-69
2021/05/25 13:16:21;;;;;;;4.65;1.05;;;;;;;;;;5084198;28;20047;-69
2021/05/25 13:18:51;;;;;;;3.70;0.95;;;;;;;;;;5084769;28;20044;-70
2021/05/25 13:21:21;;;;;;;8.23;1.08;;;;;;;;;;5089933;28;20048;-68
2021/05/25 13:23:55;;;;;;;6.07;0.90;;;;;;;;;;5089326;28;20102;-69
2021/05/25 13:26:31;;;;;;;4.18;0.80;;;;;;;;;;5086089;28;20510;-69
2021/05/25 13:29:01;;;;;;;7.93;1.00;;;;;;;;;;5087402;28;20105;-68
2021/05/25 13:31:30;;;;;;;5.00;1.00;;;;;;;;;;5089408;28;20475;-68
2021/05/25 13:34:00;;;;;;;6.32;1.23;;;;;;;;;;5091539;28;20043;-67
2021/05/25 13:36:30;;;;;;;2.72;0.80;;;;;;;;;;5085963;28;20521;-67
2021/05/25 13:38:59;;;;;;;3.60;0.88;;;;;;;;;;5085511;28;20070;-67
2021/05/25 13:41:28;;;;;;;7.10;1.15;;;;;;;;;;5088121;28;20144;-68
2021/05/25 13:43:56;;;;;;;6.07;0.70;;;;;;;;;;5085600;28;20047;-67
2021/05/25 13:46:25;;;;;;;4.05;0.60;;;;;;;;;;5086140;28;20713;-68
2021/05/25 13:48:55;;;;;;;3.13;0.90;;;;;;;;;;5089258;28;20052;-68
2021/05/25 13:51:26;;;;;;;3.80;0.68;;;;;;;;;;5080823;28;20044;-68
2021/05/25 13:53:58;;;;;;;5.00;0.80;;;;;;;;;;5075741;28;20064;-68
2021/05/25 13:56:29;;;;;;;5.75;1.00;;;;;;;;;;5085818;28;20492;-68
2021/05/25 13:59:00;;;;;;;6.45;1.15;;;;;;;;;;5086862;28;20512;-67
2021/05/25 14:01:30;;;;;;;5.57;0.77;;;;;;;;;;5087862;28;20059;-67
2021/05/25 14:04:00;;;;;;;6.50;1.00;;;;;;;;;;5085167;28;20083;-67
2021/05/25 14:06:28;;;;;;;6.05;0.88;;;;;;;;;;5083161;28;20352;-67
2021/05/25 14:08:57;;;;;;;3.55;1.00;;;;;;;;;;5086460;28;20052;-67
2021/05/25 14:11:26;;;;;;;5.13;0.70;;;;;;;;;;5086458;28;20598;-68
2021/05/25 14:13:55;;;;;;;3.40;1.10;;;;;;;;;;5082238;28;20059;-68
2021/05/25 14:16:25;;;;;;;5.22;0.77;;;;;;;;;;5085563;28;20055;-68
2021/05/25 14:18:55;;;;;;;3.72;0.70;;;;;;;;;;5086800;28;20083;-68
2021/05/25 14:21:23;;;;;;;5.35;1.00;;;;;;;;;;5085621;28;20445;-69
2021/05/25 14:23:52;;;;;;;7.75;0.98;;;;;;;;;;5085410;28;20054;-69
2021/05/25 14:26:20;;;;;;;8.15;1.42;;;;;;;;;;5085550;28;20052;-69
2021/05/25 14:28:49;;;;;;;3.30;0.80;;;;;;;;;;5085529;28;20056;-68
2021/05/25 14:31:17;;;;;;;2.90;0.77;;;;;;;;;;5086811;28;20052;-69
2021/05/25 14:33:45;;;;;;;5.68;0.60;;;;;;;;;;5085533;28;20093;-69
2021/05/25 14:36:14;;;;;;;3.38;0.88;;;;;;;;;;5085175;28;20133;-69
2021/05/25 14:38:43;;;;;;;3.00;0.70;;;;;;;;;;5074805;28;20059;-69
2021/05/25 14:41:12;;;;;;;5.70;0.98;;;;;;;;;;5088330;28;20040;-69
2021/05/25 14:43:40;;;;;;;3.55;0.73;;;;;;;;;;5093062;28;20040;-69
2021/05/25 14:46:08;;;;;;;4.93;0.88;;;;;;;;;;5090447;28;20052;-68
2021/05/25 14:48:36;;;;;;;3.78;0.70;;;;;;;;;;5091272;28;20098;-69
2021/05/25 14:51:05;;;;;;;8.80;0.90;;;;;;;;;;5089408;28;20039;-69
2021/05/25 14:53:40;;;;;;;2.97;0.80;;;;;;;;;;5086482;28;20090;-69
2021/05/25 14:56:11;;;;;;;1.60;0.68;;;;;;;;;;5089456;28;20043;-69
2021/05/25 14:58:42;;;;;;;4.00;0.70;;;;;;;;;;5083850;28;20040;-69